createdAt,value
2022-10-23T00:02:42.399Z,34.53
2022-10-23T00:05:45.457Z,32.53
2022-10-23T00:08:48.584Z,33.88
2022-10-23T00:11:51.689Z,30.88
2022-10-23T00:14:54.646Z,31.13
2022-10-23T00:17:57.533Z,31.17
2022-10-23T00:21:00.642Z,32.15
2022-10-23T00:24:03.684Z,31.60
2022-10-23T00:27:06.602Z,31.25
2022-10-23T00:30:09.880Z,31.17
2022-10-23T00:33:12.786Z,30.00
2022-10-23T00:36:16.708Z,34.45
2022-10-23T00:39:20.023Z,35.17
2022-10-23T00:42:24.029Z,33.85
2022-10-23T00:45:28.037Z,31.07
2022-10-23T00:48:30.936Z,32.37
2022-10-23T00:51:41.879Z,30.15
2022-10-23T00:54:45.592Z,29.77
2022-10-23T00:57:49.291Z,28.38
2022-10-23T01:00:54.066Z,31.57
2022-10-23T01:03:58.432Z,30.07
2022-10-23T01:07:13.626Z,32.28
2022-10-23T01:10:20.745Z,29.95
2022-10-23T01:13:46.302Z,32.17
2022-10-23T01:16:59.444Z,35.00
2022-10-23T01:20:23.309Z,31.90
2022-10-23T01:23:36.472Z,34.42
2022-10-23T01:27:09.935Z,36.35
2022-10-23T01:30:16.530Z,36.03
2022-10-23T01:33:33.256Z,35.10
2022-10-23T01:36:36.680Z,37.50
2022-10-23T01:39:42.043Z,36.75
2022-10-23T01:42:50.683Z,37.55
2022-10-23T01:46:05.037Z,38.80
2022-10-23T01:49:11.375Z,35.97
2022-10-23T01:52:14.759Z,32.30
2022-10-23T01:55:20.569Z,32.47
2022-10-23T01:58:24.264Z,33.38
2022-10-23T02:01:27.807Z,35.47
2022-10-23T02:04:42.473Z,34.10
2022-10-23T02:07:45.588Z,32.47
2022-10-23T02:11:07.693Z,36.60
2022-10-23T02:14:43.199Z,36.33
2022-10-23T02:17:59.009Z,34.38
2022-10-23T02:21:10.087Z,33.17
2022-10-23T02:24:14.150Z,32.67
2022-10-23T02:27:42.498Z,36.55
2022-10-23T02:30:47.412Z,32.47
2022-10-23T02:33:50.429Z,32.42
2022-10-23T02:36:53.388Z,35.07
2022-10-23T02:39:57.923Z,34.10
2022-10-23T02:43:08.295Z,33.65
2022-10-23T02:46:18.397Z,33.70
2022-10-23T02:49:43.223Z,33.60
2022-10-23T02:53:32.853Z,34.70
2022-10-23T02:56:54.920Z,36.07
2022-10-23T03:00:11.572Z,33.63
2022-10-23T03:03:19.639Z,33.35
2022-10-23T03:06:23.452Z,30.67
2022-10-23T03:09:27.173Z,32.20
2022-10-23T03:12:30.161Z,30.63
2022-10-23T03:15:33.123Z,31.52
2022-10-23T03:18:36.144Z,29.83
2022-10-23T03:21:39.616Z,28.85
2022-10-23T03:24:44.418Z,27.27
2022-10-23T03:27:47.365Z,30.27
2022-10-23T03:30:52.518Z,28.38
2022-10-23T03:33:55.433Z,30.33
2022-10-23T03:36:58.368Z,30.38
2022-10-23T03:40:01.292Z,31.23
2022-10-23T03:43:07.102Z,34.20
2022-10-23T03:46:12.820Z,34.25
2022-10-23T03:49:15.840Z,36.00
2022-10-23T03:52:19.905Z,33.08
2022-10-23T03:55:22.912Z,32.17
2022-10-23T03:58:25.801Z,33.67
2022-10-23T04:01:28.869Z,33.95
2022-10-23T04:04:31.929Z,37.92
2022-10-23T04:07:36.257Z,37.95
2022-10-23T04:10:39.506Z,35.33
2022-10-23T04:13:42.403Z,37.10
2022-10-23T04:16:45.335Z,36.67
2022-10-23T04:19:48.253Z,39.88
2022-10-23T04:22:51.132Z,38.60
2022-10-23T04:25:57.452Z,38.27
2022-10-23T04:29:01.350Z,37.43
2022-10-23T04:32:06.792Z,35.03
2022-10-23T04:35:09.845Z,38.22
2022-10-23T04:38:12.908Z,47.92
2022-10-23T04:41:15.851Z,50.07
2022-10-23T04:44:18.789Z,44.37
2022-10-23T04:47:21.755Z,43.63
2022-10-23T04:50:32.900Z,41.22
2022-10-23T04:54:01.717Z,41.35
2022-10-23T04:57:30.616Z,38.80
2022-10-23T05:00:45.739Z,43.77
2022-10-23T05:03:56.747Z,43.08
2022-10-23T05:07:00.312Z,41.53
2022-10-23T05:10:19.081Z,40.53
2022-10-23T05:13:45.066Z,39.40
2022-10-23T05:17:08.786Z,39.13
2022-10-23T05:20:16.104Z,46.85
2022-10-23T05:23:19.514Z,60.72
2022-10-23T05:26:32.067Z,75.78
2022-10-23T05:29:40.159Z,133.00
2022-10-23T05:32:43.391Z,51.00
2022-10-23T05:35:46.545Z,49.30
2022-10-23T05:38:51.918Z,51.75
2022-10-23T05:41:56.849Z,58.67
2022-10-23T05:45:01.229Z,54.63
2022-10-23T05:48:33.888Z,48.77
2022-10-23T05:51:56.122Z,42.95
2022-10-23T05:55:21.573Z,43.30
2022-10-23T05:58:24.494Z,43.47
2022-10-23T06:01:45.830Z,46.20
2022-10-23T06:04:53.366Z,46.43
2022-10-23T06:08:09.907Z,42.25
2022-10-23T06:11:14.348Z,40.65
2022-10-23T06:14:21.840Z,41.03
2022-10-23T06:17:27.337Z,41.47
2022-10-23T06:20:30.444Z,42.90
2022-10-23T06:23:43.926Z,41.53
2022-10-23T06:27:07.266Z,38.28
2022-10-23T06:30:20.723Z,38.65
2022-10-23T06:33:25.480Z,42.27
2022-10-23T06:36:28.708Z,34.50
2022-10-23T06:39:45.223Z,35.53
2022-10-23T06:42:51.026Z,36.05
2022-10-23T06:46:22.828Z,39.13
2022-10-23T06:49:48.805Z,40.73
2022-10-23T06:52:51.889Z,42.13
2022-10-23T06:56:02.406Z,34.63
2022-10-23T06:59:07.656Z,35.75
2022-10-23T07:02:10.822Z,34.65
2022-10-23T07:05:14.667Z,31.37
2022-10-23T07:08:18.966Z,31.50
2022-10-23T07:11:25.193Z,30.60
2022-10-23T07:14:32.065Z,30.08
2022-10-23T07:17:36.609Z,31.05
2022-10-23T07:20:40.340Z,31.77
2022-10-23T07:23:43.444Z,29.73
2022-10-23T07:26:47.010Z,29.73
2022-10-23T07:29:51.325Z,31.10
2022-10-23T07:32:54.344Z,25.70
2022-10-23T07:36:15.791Z,28.50
2022-10-23T07:39:19.727Z,28.53
2022-10-23T07:42:27.648Z,27.90
2022-10-23T07:45:30.541Z,28.10
2022-10-23T07:48:38.454Z,27.27
2022-10-23T07:51:41.551Z,29.40
2022-10-23T07:54:45.149Z,29.90
2022-10-23T07:57:55.599Z,30.05
2022-10-23T08:01:40.721Z,29.73
2022-10-23T08:04:44.056Z,29.27
2022-10-23T08:08:23.323Z,27.87
2022-10-23T08:11:30.937Z,30.20
2022-10-23T08:14:34.284Z,27.85
2022-10-23T08:17:39.194Z,27.05
2022-10-23T08:20:51.110Z,27.75
2022-10-23T08:23:58.750Z,28.23
2022-10-23T08:27:02.256Z,28.10
2022-10-23T08:30:07.159Z,31.85
2022-10-23T08:33:10.199Z,27.75
2022-10-23T08:36:21.702Z,26.23
2022-10-23T08:39:24.941Z,28.00
2022-10-23T08:43:11.245Z,27.57
2022-10-23T08:46:23.978Z,23.95
2022-10-23T08:49:55.818Z,24.92
2022-10-23T08:53:14.571Z,24.88
2022-10-23T08:56:30.899Z,25.53
2022-10-23T09:00:07.184Z,23.77
2022-10-23T09:03:10.463Z,22.17
2022-10-23T09:06:20.302Z,23.00
2022-10-23T09:09:32.044Z,24.80
2022-10-23T09:12:34.937Z,26.93
2022-10-23T09:15:47.797Z,25.73
2022-10-23T09:18:50.801Z,24.08
2022-10-23T09:21:53.978Z,21.38
2022-10-23T09:24:56.999Z,21.73
2022-10-23T09:28:01.614Z,23.87
2022-10-23T09:31:09.247Z,22.03
2022-10-23T09:34:21.502Z,22.38
2022-10-23T09:37:28.935Z,20.08
2022-10-23T09:40:42.271Z,22.05
2022-10-23T09:43:45.334Z,23.93
2022-10-23T09:49:57.790Z,21.05
2022-10-23T09:53:00.701Z,21.13
2022-10-23T09:56:28.732Z,22.05
2022-10-23T09:59:31.835Z,21.40
2022-10-23T10:02:35.981Z,19.87
2022-10-23T10:05:42.295Z,20.75
2022-10-23T10:09:02.518Z,19.33
2022-10-23T10:12:22.867Z,19.90
2022-10-23T10:15:47.504Z,20.53
2022-10-23T10:19:02.998Z,19.77
2022-10-23T10:22:26.808Z,18.38
2022-10-23T10:25:53.524Z,18.98
2022-10-23T10:29:36.382Z,18.55
2022-10-23T10:32:58.946Z,19.07
2022-10-23T10:36:11.170Z,19.17
2022-10-23T10:39:32.255Z,17.77
2022-10-23T10:42:50.697Z,20.42
2022-10-23T10:46:11.733Z,16.00
2022-10-23T10:49:22.686Z,15.83
2022-10-23T10:52:52.339Z,14.97
2022-10-23T10:55:55.759Z,13.93
2022-10-23T10:59:00.412Z,15.35
2022-10-23T11:02:29.011Z,14.32
2022-10-23T11:05:37.229Z,15.93
2022-10-23T11:08:56.147Z,16.80
2022-10-23T11:12:00.733Z,14.90
2022-10-23T11:15:03.732Z,16.38
2022-10-23T11:18:12.194Z,16.27
2022-10-23T11:21:27.216Z,15.83
2022-10-23T11:25:00.633Z,15.30
2022-10-23T11:28:18.748Z,14.55
2022-10-23T11:31:50.589Z,15.85
2022-10-23T11:34:56.590Z,14.50
2022-10-23T11:38:08.447Z,12.77
2022-10-23T11:41:27.036Z,13.60
2022-10-23T11:44:43.121Z,13.98
2022-10-23T11:47:46.019Z,15.55
2022-10-23T11:50:49.469Z,15.25
2022-10-23T11:53:52.370Z,15.17
2022-10-23T11:57:08.096Z,14.17
2022-10-23T12:00:21.709Z,14.90
2022-10-23T12:03:40.881Z,14.73
2022-10-23T12:06:49.248Z,12.77
2022-10-23T12:09:57.447Z,14.97
2022-10-23T12:13:05.344Z,15.53
2022-10-23T12:16:08.315Z,13.63
2022-10-23T12:19:18.620Z,13.60
2022-10-23T12:22:22.329Z,13.50
2022-10-23T12:25:42.770Z,13.33
2022-10-23T12:29:00.787Z,14.10
2022-10-23T12:32:28.663Z,14.88
2022-10-23T12:36:01.030Z,15.80
2022-10-23T12:39:23.872Z,13.52
2022-10-23T12:42:28.004Z,12.43
2022-10-23T12:45:37.948Z,12.33
2022-10-23T12:48:48.595Z,11.27
2022-10-23T12:51:59.823Z,11.52
2022-10-23T12:55:13.530Z,14.98
2022-10-23T12:58:35.281Z,12.97
2022-10-23T13:01:43.281Z,14.00
2022-10-23T13:04:46.667Z,12.57
2022-10-23T13:07:52.165Z,13.77
2022-10-23T13:11:03.277Z,11.90
2022-10-23T13:14:13.474Z,14.73
2022-10-23T13:17:16.409Z,13.03
2022-10-23T13:20:21.214Z,13.68
2022-10-23T13:23:36.486Z,16.25
2022-10-23T13:26:45.266Z,15.32
2022-10-23T13:29:48.363Z,16.17
2022-10-23T13:32:51.274Z,15.17
2022-10-23T13:36:01.826Z,15.90
2022-10-23T13:39:10.747Z,13.60
2022-10-23T13:42:14.274Z,13.93
2022-10-23T13:45:21.124Z,15.27
2022-10-23T13:48:24.046Z,14.47
2022-10-23T13:51:28.525Z,14.63
2022-10-23T13:54:31.838Z,14.73
2022-10-23T13:57:34.748Z,14.70
2022-10-23T14:00:37.928Z,13.93
2022-10-23T14:03:40.815Z,16.70
2022-10-23T14:06:43.977Z,16.27
2022-10-23T14:09:47.434Z,16.40
2022-10-23T14:12:54.815Z,16.67
2022-10-23T14:15:57.845Z,14.87
2022-10-23T14:19:00.770Z,16.77
2022-10-23T14:22:03.654Z,17.23
2022-10-23T14:25:06.800Z,15.95
2022-10-23T14:28:09.686Z,16.23
2022-10-23T14:31:14.401Z,17.20
2022-10-23T14:34:17.315Z,16.87
2022-10-23T14:37:20.741Z,16.92
2022-10-23T14:40:23.652Z,14.55
2022-10-23T14:43:26.551Z,15.07
2022-10-23T14:46:29.560Z,16.60
2022-10-23T14:49:32.484Z,16.77
2022-10-23T14:52:35.404Z,17.10
2022-10-23T14:55:38.305Z,13.35
2022-10-23T14:58:42.531Z,12.88
2022-10-23T15:01:48.203Z,15.97
2022-10-23T15:04:51.531Z,14.10
2022-10-23T15:07:56.335Z,15.43
2022-10-23T15:11:03.120Z,15.20
2022-10-23T15:14:06.630Z,21.35
2022-10-23T15:17:14.570Z,22.23
2022-10-23T15:20:18.753Z,13.93
2022-10-23T15:23:21.667Z,15.18
2022-10-23T15:26:25.586Z,16.17
2022-10-23T15:29:28.550Z,19.02
2022-10-23T15:32:31.480Z,15.23
2022-10-23T15:35:34.363Z,18.37
2022-10-23T15:38:37.276Z,37.50
2022-10-23T15:41:40.793Z,31.75
2022-10-23T15:44:43.668Z,20.42
2022-10-23T15:47:46.700Z,18.67
2022-10-23T15:50:49.928Z,17.97
2022-10-23T15:53:52.922Z,19.83
2022-10-23T15:56:55.858Z,19.65
2022-10-23T15:59:58.753Z,24.08
2022-10-23T16:03:01.886Z,24.87
2022-10-23T16:06:09.003Z,27.43
2022-10-23T16:09:11.991Z,17.27
2022-10-23T16:12:14.944Z,17.23
2022-10-23T16:15:17.910Z,14.32
2022-10-23T16:18:21.814Z,28.23
2022-10-23T16:21:26.387Z,22.53
2022-10-23T16:24:29.859Z,18.98
2022-10-23T16:27:32.764Z,18.88
2022-10-23T16:30:43.596Z,18.92
2022-10-23T16:33:46.945Z,18.07
2022-10-23T16:36:49.977Z,20.10
2022-10-23T16:40:16.105Z,25.83
2022-10-23T16:43:37.843Z,66.10
2022-10-23T16:46:48.916Z,51.97
2022-10-23T16:49:51.849Z,33.47
2022-10-23T16:52:55.814Z,31.63
2022-10-23T16:55:59.049Z,27.38
2022-10-23T16:59:02.113Z,20.30
2022-10-23T17:02:05.252Z,20.30
2022-10-23T17:05:08.405Z,20.37
2022-10-23T17:08:11.306Z,25.57
2022-10-23T17:11:22.061Z,21.15
2022-10-23T17:14:29.036Z,21.90
2022-10-23T17:17:31.926Z,28.23
2022-10-23T17:20:34.870Z,39.20
2022-10-23T17:23:37.781Z,36.40
2022-10-23T17:26:40.734Z,42.70
2022-10-23T17:29:43.638Z,21.63
2022-10-23T17:32:46.933Z,33.92
2022-10-23T17:35:50.510Z,18.27
2022-10-23T17:38:53.560Z,18.50
2022-10-23T17:41:56.589Z,14.73
2022-10-23T17:44:59.541Z,12.95
2022-10-23T17:48:02.530Z,14.88
2022-10-23T17:51:22.114Z,14.00
2022-10-23T17:54:26.638Z,11.40
2022-10-23T17:57:29.536Z,11.57
2022-10-23T18:00:32.519Z,11.48
2022-10-23T18:03:35.620Z,11.70
2022-10-23T18:06:43.096Z,14.40
2022-10-23T18:09:45.989Z,11.23
2022-10-23T18:12:48.925Z,11.20
2022-10-23T18:15:51.827Z,9.93
2022-10-23T18:18:55.039Z,12.95
2022-10-23T18:21:58.056Z,11.97
2022-10-23T18:25:01.277Z,9.70
2022-10-23T18:28:04.816Z,10.27
2022-10-23T18:31:09.887Z,11.52
2022-10-23T18:34:18.425Z,9.98
2022-10-23T18:37:21.351Z,9.07
2022-10-23T18:40:27.113Z,8.70
2022-10-23T18:43:43.397Z,9.60
2022-10-23T18:46:47.348Z,11.30
2022-10-23T18:49:50.232Z,11.15
2022-10-23T18:52:53.534Z,10.10
2022-10-23T18:55:56.482Z,9.77
2022-10-23T18:59:00.396Z,8.63
2022-10-23T19:02:03.435Z,8.57
2022-10-23T19:05:07.293Z,9.45
2022-10-23T19:08:10.377Z,8.33
2022-10-23T19:11:14.212Z,10.30
2022-10-23T19:14:17.140Z,8.80
2022-10-23T19:17:22.657Z,9.38
2022-10-23T19:20:25.601Z,9.50
2022-10-23T19:23:30.148Z,9.87
2022-10-23T19:26:33.691Z,9.77
2022-10-23T19:29:39.148Z,10.45
2022-10-23T19:32:42.950Z,8.77
2022-10-23T19:35:46.046Z,10.02
2022-10-23T19:38:48.933Z,11.90
2022-10-23T19:41:52.036Z,10.40
2022-10-23T19:44:54.960Z,10.73
2022-10-23T19:47:57.849Z,12.13
2022-10-23T19:51:00.777Z,10.52
2022-10-23T19:54:04.013Z,13.23
2022-10-23T19:57:06.932Z,15.37
2022-10-23T20:00:10.440Z,11.48
2022-10-23T20:03:13.316Z,12.13
2022-10-23T20:06:18.787Z,11.25
2022-10-23T20:09:21.902Z,10.10
2022-10-23T20:12:24.906Z,10.70
2022-10-23T20:15:27.779Z,11.68
2022-10-23T20:18:30.733Z,16.02
2022-10-23T20:21:36.112Z,13.88
2022-10-23T20:24:42.216Z,14.00
2022-10-23T20:27:45.106Z,11.90
2022-10-23T20:30:47.992Z,14.30
2022-10-23T20:33:51.082Z,14.63
2022-10-23T20:36:54.245Z,13.20
2022-10-23T20:39:57.138Z,13.80
2022-10-23T20:43:00.358Z,12.67
2022-10-23T20:46:06.966Z,13.55
2022-10-23T20:49:09.978Z,15.23
2022-10-23T20:52:12.862Z,13.52
2022-10-23T20:55:15.771Z,14.47
2022-10-23T20:58:18.646Z,13.37
2022-10-23T21:01:21.694Z,16.75
2022-10-23T21:04:27.449Z,14.65
2022-10-23T21:07:30.344Z,14.02
2022-10-23T21:10:33.238Z,16.47
2022-10-23T21:13:36.351Z,14.20
2022-10-23T21:16:40.817Z,14.43
2022-10-23T21:19:43.841Z,15.55
2022-10-23T21:22:46.812Z,14.52
2022-10-23T21:25:49.770Z,16.70
2022-10-23T21:28:56.377Z,18.40
2022-10-23T21:32:09.741Z,16.38
2022-10-23T21:35:12.627Z,17.92
2022-10-23T21:38:15.511Z,19.15
2022-10-23T21:41:20.907Z,18.60
2022-10-23T21:44:23.851Z,17.50
2022-10-23T21:47:26.815Z,18.92
2022-10-23T21:50:29.732Z,16.98
2022-10-23T21:53:32.743Z,16.85
2022-10-23T21:56:39.670Z,19.43
2022-10-23T21:59:42.625Z,17.40
2022-10-23T22:02:45.973Z,16.23
2022-10-23T22:05:49.629Z,16.58
2022-10-23T22:08:52.925Z,23.65
2022-10-23T22:11:55.979Z,19.20
2022-10-23T22:14:58.879Z,18.47
2022-10-23T22:18:01.834Z,17.85
2022-10-23T22:21:06.538Z,18.00
2022-10-23T22:24:09.619Z,16.77
2022-10-23T22:27:12.506Z,20.90
2022-10-23T22:30:15.509Z,19.97
2022-10-23T22:33:18.461Z,18.95
2022-10-23T22:36:21.558Z,19.75
2022-10-23T22:39:24.567Z,18.95
2022-10-23T22:42:27.500Z,16.90
2022-10-23T22:45:30.389Z,20.20
2022-10-23T22:48:33.716Z,18.90
2022-10-23T22:51:36.739Z,21.83
2022-10-23T22:54:39.657Z,20.13
2022-10-23T22:57:42.862Z,18.80
2022-10-23T23:00:46.019Z,17.07
2022-10-23T23:03:49.081Z,21.80
2022-10-23T23:06:51.999Z,19.95
2022-10-23T23:09:54.962Z,18.17
2022-10-23T23:12:57.864Z,21.10
2022-10-23T23:16:00.822Z,22.27
2022-10-23T23:19:04.161Z,21.17
2022-10-23T23:22:07.070Z,22.45
2022-10-23T23:25:10.239Z,20.35
2022-10-23T23:28:17.254Z,20.87
2022-10-23T23:31:25.026Z,22.23
2022-10-23T23:34:28.105Z,19.38
2022-10-23T23:37:30.986Z,22.73
2022-10-23T23:40:33.891Z,19.10
2022-10-23T23:43:36.771Z,21.70
2022-10-23T23:46:39.659Z,21.20
2022-10-23T23:49:42.522Z,19.15
2022-10-23T23:52:45.420Z,18.98
2022-10-23T23:55:48.314Z,18.00
2022-10-23T23:58:51.206Z,22.10
